Time;durP1;ratioP1;P1;durP2;ratioP2;P2;SDS_P1;SDS_P2;PMS_P1;PMS_P2;Temp;Humidity;BMP_temperature;BMP_pressure;BME280_temperature;BME280_humidity;BME280_pressure;Samples;Min_cycle;Max_cycle;Signal;HPM_P1;HPM_P2
2021/12/15 00:02:13;;;;;;;;;;;;;;;5.63;100.00;101977.47;5053317;28;19940;-82
2021/12/15 00:04:39;;;;;;;;;;;;;;;5.62;100.00;101978.38;5061015;28;19925;-83
2021/12/15 00:07:04;;;;;;;;;;;;;;;5.61;100.00;101974.91;5057736;28;19924;-83
2021/12/15 00:09:29;;;;;;;;;;;;;;;5.62;100.00;101970.50;5054899;28;19943;-83
2021/12/15 00:11:54;;;;;;;;;;;;;;;5.64;100.00;101977.38;5058007;28;19966;-82
2021/12/15 00:14:20;;;;;;;;;;;;;;;5.65;100.00;101978.19;5058678;28;20293;-83
2021/12/15 00:16:46;;;;;;;;;;;;;;;5.67;100.00;101976.34;5059575;28;20024;-83
2021/12/15 00:19:11;;;;;;;;;;;;;;;5.64;100.00;101968.66;5056597;28;19920;-83
2021/12/15 00:21:36;;;;;;;;;;;;;;;5.64;100.00;101971.28;5058079;28;20362;-83
2021/12/15 00:24:03;;;;;;;;;;;;;;;5.63;100.00;101970.44;5056169;28;20329;-82
2021/12/15 00:26:28;;;;;;;;;;;;;;;5.58;100.00;101969.84;5046683;28;19920;-82
2021/12/15 00:28:53;;;;;;;;;;;;;;;5.47;100.00;101974.81;5058713;28;20007;-83
2021/12/15 00:31:19;;;;;;;;;;;;;;;5.46;100.00;101978.38;5055995;28;19920;-83
2021/12/15 00:33:44;;;;;;;;;;;;;;;5.50;100.00;101974.66;5054020;28;19936;-83
2021/12/15 00:36:10;;;;;;;;;;;;;;;5.49;100.00;101972.97;5057171;28;20371;-83
2021/12/15 00:38:39;;;;;;;;;;;;;;;5.44;100.00;101969.75;5059382;28;19948;-82
2021/12/15 00:41:04;;;;;;;;;;;;;;;5.41;100.00;101969.88;5053321;28;19928;-83
2021/12/15 00:43:29;;;;;;;;;;;;;;;5.43;100.00;101966.25;5057099;28;19921;-83
2021/12/15 00:45:55;;;;;;;;;;;;;;;5.42;100.00;101967.19;5057231;28;19916;-83
2021/12/15 00:48:20;;;;;;;;;;;;;;;5.42;100.00;101967.19;5091202;28;20279;-83
2021/12/15 00:50:46;;;;;;;;;;;;;;;5.43;100.00;101968.88;5051219;28;19921;-83
2021/12/15 00:53:11;;;;;;;;;;;;;;;5.41;100.00;101972.50;5053316;28;20007;-82
2021/12/15 00:55:38;;;;;;;;;;;;;;;5.44;100.00;101975.00;5043221;28;19917;-83
2021/12/15 00:58:04;;;;;;;;;;;;;;;5.45;100.00;101966.19;5047715;28;20456;-84
2021/12/15 01:00:35;;;;;;;;;;;;;;;5.45;100.00;101961.78;5052795;28;19921;-83
2021/12/15 01:03:00;;;;;;;;;;;;;;;5.43;100.00;101968.88;5058432;28;19925;-83
2021/12/15 01:05:31;;;;;;;;;;;;;;;5.39;100.00;101971.78;5058620;28;20427;-82
2021/12/15 01:07:56;;;;;;;;;;;;;;;5.37;100.00;101971.84;5059635;28;19921;-83
2021/12/15 01:10:30;;;;;;;;;;;;;;;5.40;100.00;101974.28;5054849;28;19921;-82
2021/12/15 01:20:59;;;;;;;;;;;;;;;5.36;100.00;101967.50;5054923;28;19943;-82
2021/12/15 01:23:26;;;;;;;;;;;;;;;5.35;100.00;101968.47;5056268;28;20509;-84
2021/12/15 01:25:54;;;;;;;;;;;;;;;5.33;100.00;101970.31;5062642;28;19917;-83
2021/12/15 01:28:19;;;;;;;;;;;;;;;5.32;100.00;101973.88;5051151;28;19932;-83
2021/12/15 01:30:45;;;;;;;;;;;;;;;5.28;100.00;101973.19;5053195;28;20298;-82
2021/12/15 01:33:10;;;;;;;;;;;;;;;5.29;100.00;101974.88;5049730;28;20233;-83
2021/12/15 01:35:37;;;;;;;;;;;;;;;5.23;100.00;101976.97;5056803;28;19972;-83
2021/12/15 01:38:03;;;;;;;;;;;;;;;5.17;100.00;101982.53;5053090;28;19920;-83
2021/12/15 01:40:37;;;;;;;;;;;;;;;5.14;100.00;101980.09;5056238;28;20424;-83
2021/12/15 01:43:16;;;;;;;;;;;;;;;5.14;100.00;101983.56;5051155;28;19925;-83
2021/12/15 01:48:27;;;;;;;;;;;;;;;5.05;100.00;101984.03;5065410;28;19977;-83
2021/12/15 01:50:52;;;;;;;;;;;;;;;5.02;100.00;101984.19;5053684;28;20352;-83
2021/12/15 01:53:18;;;;;;;;;;;;;;;4.89;100.00;101976.97;5052811;28;19932;-83
2021/12/15 01:55:43;;;;;;;;;;;;;;;4.88;100.00;101977.88;5050905;28;19916;-83
2021/12/15 01:58:09;;;;;;;;;;;;;;;4.88;100.00;101982.28;5051287;28;20393;-82
2021/12/15 02:01:00;;;;;;;;;;;;;;;4.88;100.00;101987.53;5052309;28;19920;-83
2021/12/15 02:03:25;;;;;;;;;;;;;;;4.81;100.00;101984.38;5048335;28;19920;-82
2021/12/15 02:05:51;;;;;;;;;;;;;;;4.76;100.00;101983.75;5058726;28;19921;-83
2021/12/15 02:08:16;;;;;;;;;;;;;;;4.77;100.00;101984.63;5048190;28;19917;-83
2021/12/15 02:10:45;;;;;;;;;;;;;;;4.74;100.00;101990.84;5052565;28;20071;-83
2021/12/15 02:13:13;;;;;;;;;;;;;;;4.73;100.00;101978.69;5050638;28;19925;-83
2021/12/15 02:15:49;;;;;;;;;;;;;;;4.68;100.00;101984.16;5053632;28;20397;-82
2021/12/15 02:18:16;;;;;;;;;;;;;;;4.59;100.00;101984.63;5050019;28;20157;-83
2021/12/15 02:20:46;;;;;;;;;;;;;;;4.55;100.00;101982.22;5056879;28;20511;-83
2021/12/15 02:23:15;;;;;;;;;;;;;;;4.54;100.00;101988.41;5059152;28;20328;-83
2021/12/15 02:25:40;;;;;;;;;;;;;;;4.55;100.00;101990.94;5055968;28;20117;-82
2021/12/15 02:28:07;;;;;;;;;;;;;;;4.56;100.00;101986.56;5051427;28;19917;-83
2021/12/15 02:33:34;;;;;;;;;;;;;;;4.51;100.00;101988.56;5053086;28;20491;-83
2021/12/15 02:38:42;;;;;;;;;;;;;;;4.49;100.00;101985.16;5051446;28;19943;-83
2021/12/15 02:41:19;;;;;;;;;;;;;;;4.46;100.00;101979.16;5054340;28;19948;-81
2021/12/15 02:43:45;;;;;;;;;;;;;;;4.43;100.00;101981.06;5053603;28;19943;-83
2021/12/15 02:46:11;;;;;;;;;;;;;;;4.34;100.00;101985.00;5051108;28;19917;-83
2021/12/15 02:48:36;;;;;;;;;;;;;;;4.30;100.00;101996.56;5055091;28;20074;-83
2021/12/15 02:51:01;;;;;;;;;;;;;;;4.29;100.00;101996.59;5050490;28;19944;-83
2021/12/15 02:53:26;;;;;;;;;;;;;;;4.25;100.00;102002.00;5058092;28;19931;-83
2021/12/15 02:55:52;;;;;;;;;;;;;;;4.28;100.00;101997.56;5054517;28;19921;-83
2021/12/15 02:58:19;;;;;;;;;;;;;;;4.32;100.00;101999.09;5047370;28;20532;-83
2021/12/15 03:01:01;;;;;;;;;;;;;;;4.38;100.00;101996.16;5056732;28;19920;-83
2021/12/15 03:06:17;;;;;;;;;;;;;;;4.40;100.00;101997.78;5051687;28;20003;-83
2021/12/15 03:09:09;;;;;;;;;;;;;;;4.37;100.00;101997.94;5053040;28;19931;-83
2021/12/15 03:17:02;;;;;;;;;;;;;;;4.31;100.00;101998.22;5053202;28;20374;-83
2021/12/15 03:19:27;;;;;;;;;;;;;;;4.34;100.00;101992.00;5053630;28;19923;-83
2021/12/15 03:21:52;;;;;;;;;;;;;;;4.37;100.00;102003.19;5052723;28;19986;-82
2021/12/15 03:24:20;;;;;;;;;;;;;;;4.34;100.00;101999.84;5057297;28;19971;-83
2021/12/15 03:27:02;;;;;;;;;;;;;;;4.32;100.00;101997.31;5052150;28;20007;-83
2021/12/15 03:37:53;;;;;;;;;;;;;;;4.36;100.00;101991.03;5045836;28;20412;-83
2021/12/15 03:40:19;;;;;;;;;;;;;;;4.23;100.00;101989.91;5061634;28;19921;-83
2021/12/15 03:42:46;;;;;;;;;;;;;;;4.17;100.00;101995.44;5054132;28;20458;-83
2021/12/15 03:45:14;;;;;;;;;;;;;;;4.18;100.00;101999.75;5064001;28;19928;-82
2021/12/15 03:47:42;;;;;;;;;;;;;;;4.25;100.00;102001.16;5062145;28;19971;-82
2021/12/15 03:50:10;;;;;;;;;;;;;;;4.25;100.00;101998.56;5055354;28;20301;-82
2021/12/15 03:52:35;;;;;;;;;;;;;;;4.24;100.00;101999.44;5055412;28;19921;-83
2021/12/15 03:55:01;;;;;;;;;;;;;;;4.16;100.00;101997.22;5057863;28;19927;-83
2021/12/15 03:57:26;;;;;;;;;;;;;;;4.20;100.00;102008.41;5056536;28;20345;-82
2021/12/15 03:59:53;;;;;;;;;;;;;;;4.18;100.00;101999.75;5057713;28;19927;-82
2021/12/15 04:02:19;;;;;;;;;;;;;;;4.17;100.00;101996.31;5061960;28;19986;-82
2021/12/15 04:04:45;;;;;;;;;;;;;;;4.19;100.00;102001.44;5066201;28;19921;-82
2021/12/15 04:07:10;;;;;;;;;;;;;;;4.15;100.00;102002.53;5061451;28;19947;-83
2021/12/15 04:09:36;;;;;;;;;;;;;;;4.16;100.00;102009.47;5072181;28;20398;-83
2021/12/15 04:12:02;;;;;;;;;;;;;;;4.12;100.00;102003.50;5065313;28;19928;-82
2021/12/15 04:14:34;;;;;;;;;;;;;;;4.13;100.00;102000.00;5068042;28;19939;-83
2021/12/15 04:17:05;;;;;;;;;;;;;;;4.07;100.00;102002.88;5064460;28;19925;-83
2021/12/15 04:19:32;;;;;;;;;;;;;;;4.07;100.00;102002.88;5057412;28;20024;-82
2021/12/15 04:21:57;;;;;;;;;;;;;;;4.06;100.00;102005.59;5055692;28;20102;-83
2021/12/15 04:24:25;;;;;;;;;;;;;;;4.07;100.00;102010.75;5058484;28;19924;-82
2021/12/15 04:26:50;;;;;;;;;;;;;;;4.10;100.00;102010.63;5064388;28;19920;-83
2021/12/15 04:29:16;;;;;;;;;;;;;;;4.10;100.00;102008.00;5056098;28;19920;-83
2021/12/15 04:31:45;;;;;;;;;;;;;;;4.12;100.00;102002.66;5057655;28;19939;-83
2021/12/15 04:34:12;;;;;;;;;;;;;;;4.12;100.00;102003.50;5052391;28;19935;-82
2021/12/15 04:36:39;;;;;;;;;;;;;;;4.11;100.00;101995.75;5059568;28;19921;-83
2021/12/15 04:39:06;;;;;;;;;;;;;;;4.07;100.00;101999.44;5055678;28;20306;-82
2021/12/15 04:41:31;;;;;;;;;;;;;;;4.04;100.00;102001.25;5052383;28;19921;-82
2021/12/15 04:43:58;;;;;;;;;;;;;;;3.98;100.00;101995.47;5056891;28;19917;-83
2021/12/15 04:46:26;;;;;;;;;;;;;;;3.96;100.00;101999.97;5053261;28;19921;-83
2021/12/15 04:48:51;;;;;;;;;;;;;;;3.94;100.00;102010.47;5053541;28;19971;-82
2021/12/15 04:51:18;;;;;;;;;;;;;;;3.90;100.00;102006.31;5059556;28;20382;-83
2021/12/15 04:53:43;;;;;;;;;;;;;;;3.86;100.00;102002.13;5053201;28;19928;-83
2021/12/15 04:56:08;;;;;;;;;;;;;;;3.81;100.00;102001.50;5055600;28;20057;-82
2021/12/15 04:58:34;;;;;;;;;;;;;;;3.77;100.00;102007.81;5055969;28;19928;-83
2021/12/15 05:01:01;;;;;;;;;;;;;;;3.76;100.00;102014.78;5054619;28;19920;-83
2021/12/15 05:03:26;;;;;;;;;;;;;;;3.79;100.00;102016.41;5059498;28;20436;-83
2021/12/15 05:05:52;;;;;;;;;;;;;;;3.80;100.00;102020.75;5055632;28;19925;-83
2021/12/15 05:08:18;;;;;;;;;;;;;;;3.83;100.00;102020.59;5058555;28;19935;-83
2021/12/15 05:10:43;;;;;;;;;;;;;;;3.80;100.00;102021.59;5061584;28;19931;-83
2021/12/15 05:13:08;;;;;;;;;;;;;;;3.77;100.00;102026.13;5062933;28;19925;-83
2021/12/15 05:15:35;;;;;;;;;;;;;;;3.74;100.00;102026.25;5061666;28;20480;-82
2021/12/15 05:18:01;;;;;;;;;;;;;;;3.73;100.00;102025.41;5064407;28;19960;-83
2021/12/15 05:20:26;;;;;;;;;;;;;;;3.73;100.00;102027.19;5055768;28;19921;-83
2021/12/15 05:22:52;;;;;;;;;;;;;;;3.70;100.00;102032.56;5055842;28;19970;-83
2021/12/15 05:25:18;;;;;;;;;;;;;;;3.69;100.00;102029.06;5054284;28;20394;-83
2021/12/15 05:27:43;;;;;;;;;;;;;;;3.73;100.00;102032.41;5052584;28;19959;-83
2021/12/15 05:30:10;;;;;;;;;;;;;;;3.75;100.00;102035.81;5055775;28;19927;-83
2021/12/15 05:32:36;;;;;;;;;;;;;;;3.81;100.00;102040.75;5058930;28;19925;-83
2021/12/15 05:35:01;;;;;;;;;;;;;;;3.82;100.00;102037.22;5053652;28;19931;-83
2021/12/15 05:37:27;;;;;;;;;;;;;;;3.81;100.00;102043.38;5055054;28;19928;-81
2021/12/15 05:39:53;;;;;;;;;;;;;;;3.87;100.00;102035.25;5056236;28;19968;-83
2021/12/15 05:42:19;;;;;;;;;;;;;;;3.88;100.00;102042.16;5053819;28;20401;-83
2021/12/15 05:44:45;;;;;;;;;;;;;;;3.91;100.00;102041.16;5051763;28;20340;-83
2021/12/15 05:47:11;;;;;;;;;;;;;;;3.94;100.00;102041.88;5052949;28;19950;-83
2021/12/15 05:49:37;;;;;;;;;;;;;;;3.97;100.00;102038.28;5062281;28;20504;-83
2021/12/15 05:52:03;;;;;;;;;;;;;;;3.95;100.00;102043.56;5054549;28;19921;-83
2021/12/15 05:54:29;;;;;;;;;;;;;;;3.88;100.00;102042.16;5054397;28;19920;-83
2021/12/15 05:56:54;;;;;;;;;;;;;;;3.84;100.00;102048.47;5055198;28;20012;-83
2021/12/15 05:59:20;;;;;;;;;;;;;;;3.81;100.00;102039.00;5054853;28;19952;-83
2021/12/15 06:01:45;;;;;;;;;;;;;;;3.80;100.00;102049.53;5054556;28;20370;-83
2021/12/15 06:04:10;;;;;;;;;;;;;;;3.82;100.00;102052.94;5055215;28;20023;-83
2021/12/15 06:06:36;;;;;;;;;;;;;;;3.81;100.00;102052.09;5066055;28;19921;-83
2021/12/15 06:09:03;;;;;;;;;;;;;;;3.86;100.00;102051.84;5053667;28;20000;-83
2021/12/15 06:11:29;;;;;;;;;;;;;;;3.82;100.00;102055.53;5056900;28;19921;-83
2021/12/15 06:13:54;;;;;;;;;;;;;;;3.81;100.00;102057.31;5053905;28;20106;-83
2021/12/15 06:16:21;;;;;;;;;;;;;;;3.79;100.00;102056.53;5057732;28;19967;-83
2021/12/15 06:18:48;;;;;;;;;;;;;;;3.81;100.00;102053.84;5053340;28;19921;-83
2021/12/15 06:21:13;;;;;;;;;;;;;;;3.80;100.00;102058.22;5052307;28;20293;-83
2021/12/15 06:23:38;;;;;;;;;;;;;;;3.70;100.00;102062.19;5055024;28;19921;-82
2021/12/15 06:26:05;;;;;;;;;;;;;;;3.63;100.00;102070.38;5057146;28;19980;-83
2021/12/15 06:28:31;;;;;;;;;;;;;;;3.65;100.00;102069.41;5053169;28;19971;-83
2021/12/15 06:30:57;;;;;;;;;;;;;;;3.70;100.00;102067.41;5054143;28;19917;-83
2021/12/15 06:33:22;;;;;;;;;;;;;;;3.79;100.00;102068.75;5073143;28;20201;-83
2021/12/15 06:35:57;;;;;;;;;;;;;;;3.82;100.00;102069.47;5063664;28;20351;-83
2021/12/15 06:38:29;;;;;;;;;;;;;;;3.81;100.00;102080.88;5047761;28;19925;-83
2021/12/15 06:40:54;;;;;;;;;;;;;;;3.79;100.00;102080.09;5063533;28;19921;-83
2021/12/15 06:43:20;;;;;;;;;;;;;;;3.81;100.00;102077.38;5061242;28;19927;-83
2021/12/15 06:45:58;;;;;;;;;;;;;;;3.89;100.00;102087.53;5043549;28;19975;-82
2021/12/15 06:59:19;;;;;;;;;;;;;;;4.15;100.00;102110.72;5069837;28;19943;-83
2021/12/15 07:01:46;;;;;;;;;;;;;;;4.18;100.00;102107.09;5045658;28;19917;-83
2021/12/15 07:04:12;;;;;;;;;;;;;;;4.25;100.00;102108.53;5057096;28;19921;-82
2021/12/15 07:06:37;;;;;;;;;;;;;;;4.29;100.00;102106.59;5068680;28;19924;-82
2021/12/15 07:09:04;;;;;;;;;;;;;;;4.36;100.00;102110.63;5079472;28;19969;-82
2021/12/15 07:11:29;;;;;;;;;;;;;;;4.40;100.00;102110.41;5069034;28;19952;-82
2021/12/15 07:13:54;;;;;;;;;;;;;;;4.41;100.00;102116.47;5056157;28;19989;-83
2021/12/15 07:16:20;;;;;;;;;;;;;;;4.40;100.00;102120.88;5039536;28;19920;-83
2021/12/15 07:18:52;;;;;;;;;;;;;;;4.43;100.00;102127.75;5065413;28;19921;-83
2021/12/15 07:21:22;;;;;;;;;;;;;;;4.52;100.00;102132.53;5076783;28;19947;-83
2021/12/15 07:23:48;;;;;;;;;;;;;;;4.51;100.00;102133.47;5064107;28;19952;-82
2021/12/15 07:26:14;;;;;;;;;;;;;;;4.56;100.00;102134.09;5041416;28;19917;-83
2021/12/15 07:28:40;;;;;;;;;;;;;;;4.60;100.00;102130.44;5052886;28;19923;-83
2021/12/15 07:31:06;;;;;;;;;;;;;;;4.64;100.00;102136.34;5062832;28;19921;-83
2021/12/15 07:33:31;;;;;;;;;;;;;;;4.65;100.00;102144.16;5058234;28;20430;-82
2021/12/15 07:35:57;;;;;;;;;;;;;;;4.64;100.00;102149.44;5063616;28;19948;-83
2021/12/15 07:38:23;;;;;;;;;;;;;;;4.65;100.00;102143.31;5079205;28;20469;-83
2021/12/15 07:40:48;;;;;;;;;;;;;;;4.67;100.00;102146.69;5062703;28;19917;-82
2021/12/15 07:43:23;;;;;;;;;;;;;;;4.66;100.00;102151.06;5070667;28;20317;-83
2021/12/15 07:45:51;;;;;;;;;;;;;;;4.70;100.00;102164.91;5074671;28;20381;-82
2021/12/15 07:48:17;;;;;;;;;;;;;;;4.74;100.00;102153.31;5069634;28;19969;-83
2021/12/15 07:50:44;;;;;;;;;;;;;;;4.80;100.00;102163.53;5055492;28;19939;-83
2021/12/15 07:53:10;;;;;;;;;;;;;;;4.86;100.00;102171.09;5059449;28;19921;-82
2021/12/15 07:55:35;;;;;;;;;;;;;;;4.88;100.00;102173.63;5074072;28;19927;-83
2021/12/15 07:58:02;;;;;;;;;;;;;;;4.94;100.00;102177.75;5052257;28;19917;-83
2021/12/15 08:00:28;;;;;;;;;;;;;;;4.98;100.00;102176.66;5050851;28;19925;-82
2021/12/15 08:02:54;;;;;;;;;;;;;;;5.02;100.00;102179.03;5071929;28;20004;-83
2021/12/15 08:05:19;;;;;;;;;;;;;;;5.07;100.00;102182.28;5060341;28;19952;-83
2021/12/15 08:07:44;;;;;;;;;;;;;;;5.15;100.00;102186.31;5079612;28;19924;-83
2021/12/15 08:10:11;;;;;;;;;;;;;;;5.17;100.00;102190.53;5080746;28;19921;-83
2021/12/15 08:12:37;;;;;;;;;;;;;;;5.09;100.00;102187.47;5069890;28;19991;-82
2021/12/15 08:15:03;;;;;;;;;;;;;;;5.06;100.00;102195.50;5069885;28;20020;-83
2021/12/15 08:17:29;;;;;;;;;;;;;;;5.20;100.00;102190.41;5074099;28;19924;-82
2021/12/15 08:19:54;;;;;;;;;;;;;;;5.22;100.00;102193.81;5071092;28;19994;-83
2021/12/15 08:22:19;;;;;;;;;;;;;;;5.26;99.91;102197.13;5057013;28;19964;-83
2021/12/15 08:24:44;;;;;;;;;;;;;;;5.26;99.91;102195.34;5071240;28;19916;-83
2021/12/15 08:27:09;;;;;;;;;;;;;;;5.32;100.00;102197.66;5058547;28;19981;-83
2021/12/15 08:29:35;;;;;;;;;;;;;;;5.39;100.00;102192.13;5049736;28;19917;-83
2021/12/15 08:32:00;;;;;;;;;;;;;;;5.45;99.22;102191.78;5050339;28;20374;-83
2021/12/15 08:34:25;;;;;;;;;;;;;;;5.42;99.25;102200.69;5052104;28;20162;-83
2021/12/15 08:36:52;;;;;;;;;;;;;;;5.44;99.35;102190.13;5067288;28;19982;-82
2021/12/15 08:39:18;;;;;;;;;;;;;;;5.44;99.04;102193.59;5058640;28;20323;-82
2021/12/15 08:41:44;;;;;;;;;;;;;;;5.50;99.29;102192.41;5089195;28;19978;-82
2021/12/15 08:44:10;;;;;;;;;;;;;;;5.51;99.55;102200.22;5068846;28;19917;-81
2021/12/15 08:46:39;;;;;;;;;;;;;;;5.60;99.54;102192.78;5072593;28;19928;-82
2021/12/15 08:49:05;;;;;;;;;;;;;;;5.67;99.41;102189.78;5070861;28;19921;-82
2021/12/15 08:51:31;;;;;;;;;;;;;;;5.51;98.78;102200.22;5070833;28;19940;-81
2021/12/15 08:53:58;;;;;;;;;;;;;;;5.61;99.31;102199.75;5054267;28;19921;-82
2021/12/15 08:56:23;;;;;;;;;;;;;;;5.61;99.36;102197.97;5067386;28;19916;-81
2021/12/15 08:58:48;;;;;;;;;;;;;;;5.73;99.48;102197.34;5053167;28;19967;-81
2021/12/15 09:01:14;;;;;;;;;;;;;;;5.88;99.51;102202.72;5064491;28;19967;-82
2021/12/15 09:03:42;;;;;;;;;;;;;;;5.94;99.35;102195.41;5059391;28;19917;-82
2021/12/15 09:06:08;;;;;;;;;;;;;;;6.01;98.98;102200.34;5048434;28;19916;-82
2021/12/15 09:08:33;;;;;;;;;;;;;;;5.91;97.99;102203.41;5074308;28;19955;-82
2021/12/15 09:11:01;;;;;;;;;;;;;;;6.00;98.00;102207.34;5047885;28;19925;-83
2021/12/15 09:13:30;;;;;;;;;;;;;;;6.11;98.47;102198.91;5055061;28;19924;-84
2021/12/15 09:15:56;;;;;;;;;;;;;;;6.10;98.37;102208.59;5051690;28;19927;-83
2021/12/15 09:18:21;;;;;;;;;;;;;;;6.07;98.15;102202.63;5063659;28;20285;-83
2021/12/15 09:20:46;;;;;;;;;;;;;;;6.14;98.64;102214.50;5068050;28;19920;-82
2021/12/15 09:23:14;;;;;;;;;;;;;;;6.19;97.61;102214.25;5054729;28;19959;-82
2021/12/15 09:25:39;;;;;;;;;;;;;;;6.27;98.53;102212.94;5057397;28;19970;-82
2021/12/15 09:28:04;;;;;;;;;;;;;;;6.36;98.77;102209.81;5072878;28;19920;-82
2021/12/15 09:30:31;;;;;;;;;;;;;;;6.51;98.30;102215.16;5066884;28;20474;-82
2021/12/15 09:32:57;;;;;;;;;;;;;;;6.55;98.19;102216.66;5050670;28;19921;-82
2021/12/15 09:35:23;;;;;;;;;;;;;;;6.61;97.95;102213.72;5053604;28;19927;-82
2021/12/15 09:37:49;;;;;;;;;;;;;;;6.72;97.88;102215.75;5063374;28;19943;-82
2021/12/15 09:40:16;;;;;;;;;;;;;;;6.69;95.88;102208.03;5054849;28;19917;-83
2021/12/15 09:42:41;;;;;;;;;;;;;;;6.74;96.73;102214.72;5053908;28;20386;-82
2021/12/15 09:45:22;;;;;;;;;;;;;;;7.00;97.59;102215.88;5054768;28;19959;-82
2021/12/15 10:04:28;;;;;;;;;;;;;;;7.85;96.79;102210.97;5010744;28;19925;-83
2021/12/15 10:18:07;;;;;;;;;;;;;;;8.13;95.90;102204.00;5057397;28;20368;-83
2021/12/15 10:20:36;;;;;;;;;;;;;;;8.14;94.95;102203.91;5052837;28;20003;-82
2021/12/15 10:23:04;;;;;;;;;;;;;;;8.14;94.65;102200.44;5053056;28;19920;-82
2021/12/15 10:25:31;;;;;;;;;;;;;;;8.15;95.07;102204.75;5053589;28;20260;-82
2021/12/15 10:28:05;;;;;;;;;;;;;;;8.22;94.91;102206.06;5052675;28;19999;-82
2021/12/15 10:30:39;;;;;;;;;;;;;;;8.26;94.81;102202.31;5050437;28;19925;-82
2021/12/15 10:33:06;;;;;;;;;;;;;;;8.31;94.02;102200.22;5051425;28;20363;-85
2021/12/15 10:35:34;;;;;;;;;;;;;;;8.37;94.42;102202.50;5052397;28;19921;-83
2021/12/15 10:38:11;;;;;;;;;;;;;;;8.38;93.61;102200.69;5052731;28;19955;-84
2021/12/15 10:40:41;;;;;;;;;;;;;;;8.30;93.16;102196.75;5051988;28;19916;-82
2021/12/15 10:43:06;;;;;;;;;;;;;;;8.29;93.42;102189.81;5043495;28;19948;-82
2021/12/15 10:45:36;;;;;;;;;;;;;;;8.38;93.48;102192.78;5052392;28;20054;-84
2021/12/15 10:48:02;;;;;;;;;;;;;;;8.37;93.64;102186.69;5050295;28;19971;-84
2021/12/15 10:50:27;;;;;;;;;;;;;;;8.49;93.79;102182.44;5050975;28;19920;-83
2021/12/15 10:52:54;;;;;;;;;;;;;;;8.42;92.13;102189.91;5052242;28;19917;-83
2021/12/15 10:55:19;;;;;;;;;;;;;;;8.52;92.95;102182.25;5051241;28;20011;-83
2021/12/15 10:57:44;;;;;;;;;;;;;;;8.58;93.48;102178.38;5051065;28;19951;-83
2021/12/15 11:00:12;;;;;;;;;;;;;;;8.66;93.01;102178.75;5052703;28;19917;-84
2021/12/15 11:02:38;;;;;;;;;;;;;;;8.55;90.31;102173.28;5052688;28;20167;-83
2021/12/15 11:05:06;;;;;;;;;;;;;;;8.63;92.49;102171.88;5053075;28;19917;-83
2021/12/15 11:07:33;;;;;;;;;;;;;;;8.69;92.17;102171.47;5054986;28;19917;-83
2021/12/15 11:09:58;;;;;;;;;;;;;;;8.74;91.84;102179.06;5071420;28;19971;-83
2021/12/15 11:12:24;;;;;;;;;;;;;;;8.61;90.92;102173.75;5056087;28;19917;-84
2021/12/15 11:14:51;;;;;;;;;;;;;;;8.66;91.75;102176.94;5072265;28;20012;-83
2021/12/15 11:17:16;;;;;;;;;;;;;;;8.74;91.26;102170.31;5056672;28;20455;-83
2021/12/15 11:19:44;;;;;;;;;;;;;;;8.73;90.76;102160.72;5057289;28;19925;-83
2021/12/15 11:22:28;;;;;;;;;;;;;;;8.74;91.01;102159.78;5056127;28;19948;-84
2021/12/15 11:24:53;;;;;;;;;;;;;;;8.75;90.97;102164.09;5072542;28;20357;-83
2021/12/15 11:27:19;;;;;;;;;;;;;;;8.75;90.12;102158.81;5058520;28;19920;-83
2021/12/15 11:29:44;;;;;;;;;;;;;;;8.81;91.44;102159.25;5057549;28;19916;-84
2021/12/15 11:32:29;;;;;;;;;;;;;;;8.81;90.02;102161.06;5055383;28;19935;-83
2021/12/15 11:35:04;;;;;;;;;;;;;;;8.56;86.29;102154.75;5055766;28;19921;-83
2021/12/15 11:37:42;;;;;;;;;;;;;;;8.58;86.16;102157.28;5057816;28;19916;-84
2021/12/15 11:40:08;;;;;;;;;;;;;;;8.53;87.49;102154.94;5057008;28;19928;-84
2021/12/15 11:42:37;;;;;;;;;;;;;;;8.32;85.43;102161.53;5057423;28;19916;-82
2021/12/15 11:45:06;;;;;;;;;;;;;;;8.39;87.54;102153.16;5057615;28;20337;-83
2021/12/15 11:47:33;;;;;;;;;;;;;;;8.35;86.20;102154.28;5058211;28;19917;-82
2021/12/15 11:50:05;;;;;;;;;;;;;;;8.41;87.36;102151.28;5060088;28;20142;-82
2021/12/15 11:52:36;;;;;;;;;;;;;;;8.54;86.75;102147.88;5062280;28;19924;-82
2021/12/15 11:55:01;;;;;;;;;;;;;;;8.43;83.77;102145.94;5063383;28;20007;-83
2021/12/15 11:57:29;;;;;;;;;;;;;;;8.40;85.13;102143.50;5065041;28;19957;-83
2021/12/15 11:59:54;;;;;;;;;;;;;;;8.57;88.40;102145.88;5063595;28;19975;-83
2021/12/15 12:02:29;;;;;;;;;;;;;;;8.59;86.34;102146.63;5063131;28;19917;-83
2021/12/15 12:04:57;;;;;;;;;;;;;;;8.75;88.19;102149.13;5052762;28;19963;-83
2021/12/15 12:07:22;;;;;;;;;;;;;;;8.83;87.61;102153.91;5063507;28;19931;-83
2021/12/15 12:10:09;;;;;;;;;;;;;;;8.85;88.24;102141.47;5054484;28;19921;-83
2021/12/15 12:12:40;;;;;;;;;;;;;;;8.89;87.35;102142.94;5052879;28;19920;-84
2021/12/15 12:15:07;;;;;;;;;;;;;;;8.87;87.13;102136.94;5064110;28;19924;-84
2021/12/15 12:17:34;;;;;;;;;;;;;;;8.88;86.78;102134.19;5054266;28;19944;-84
2021/12/15 12:20:06;;;;;;;;;;;;;;;8.88;86.71;102134.19;5055312;28;19952;-84
2021/12/15 12:22:32;;;;;;;;;;;;;;;8.88;86.42;102134.19;5055883;28;20463;-83
2021/12/15 12:24:59;;;;;;;;;;;;;;;8.92;86.29;102135.69;5054712;28;19975;-83
2021/12/15 12:27:25;;;;;;;;;;;;;;;8.85;85.76;102129.13;5054944;28;19956;-83
2021/12/15 12:29:52;;;;;;;;;;;;;;;8.92;85.09;102124.28;5055580;28;19917;-83
2021/12/15 12:32:17;;;;;;;;;;;;;;;8.82;83.96;102129.31;5055284;28;19955;-82
2021/12/15 12:34:43;;;;;;;;;;;;;;;8.88;83.31;102130.69;5057241;28;19964;-83
2021/12/15 12:37:11;;;;;;;;;;;;;;;8.78;84.69;102126.97;5038658;28;19925;-84
2021/12/15 12:39:36;;;;;;;;;;;;;;;8.83;85.27;102119.59;5052614;28;19925;-84
2021/12/15 12:42:02;;;;;;;;;;;;;;;8.78;84.79;102122.56;5037285;28;20000;-84
2021/12/15 12:44:34;;;;;;;;;;;;;;;8.71;84.13;102123.91;5036941;28;19917;-84
2021/12/15 12:47:09;;;;;;;;;;;;;;;8.61;84.19;102125.44;5052445;28;19918;-84
2021/12/15 12:59:21;;;;;;;;;;;;;;;8.54;83.91;102113.63;5034900;28;20481;-83
2021/12/15 13:00:47;;;;;;;;;;;;;;;8.44;83.77;102114.19;5034237;28;19925;-84
2021/12/15 13:03:35;;;;;;;;;;;;;;;8.40;84.44;102104.78;5031822;28;19917;-84
2021/12/15 13:06:03;;;;;;;;;;;;;;;8.47;85.12;102108.72;5014103;28;19917;-84
2021/12/15 13:08:28;;;;;;;;;;;;;;;8.43;85.04;102101.09;5035275;28;20004;-83
2021/12/15 13:10:59;;;;;;;;;;;;;;;8.48;85.25;102107.75;5035515;28;19998;-82
2021/12/15 13:13:28;;;;;;;;;;;;;;;8.56;84.99;102117.84;5036171;28;19921;-82
2021/12/15 13:15:59;;;;;;;;;;;;;;;8.50;85.89;102107.69;5036463;28;19921;-83
2021/12/15 13:18:25;;;;;;;;;;;;;;;8.55;85.54;102112.66;5035877;28;20370;-83
2021/12/15 13:21:00;;;;;;;;;;;;;;;8.70;85.73;102103.75;5036660;28;19917;-83
2021/12/15 13:23:57;;;;;;;;;;;;;;;8.74;85.23;102105.22;5033808;28;19917;-83
2021/12/15 13:29:26;;;;;;;;;;;;;;;8.81;84.36;102103.03;5036445;28;19927;-83
2021/12/15 13:31:53;;;;;;;;;;;;;;;8.70;84.20;102107.22;5033728;28;19921;-83
2021/12/15 13:34:33;;;;;;;;;;;;;;;8.64;85.35;102104.16;5033439;28;20012;-83
2021/12/15 13:36:59;;;;;;;;;;;;;;;8.55;84.43;102104.75;5033181;28;19918;-83
2021/12/15 13:39:24;;;;;;;;;;;;;;;8.62;86.12;102103.41;5033455;28;20456;-83
2021/12/15 13:42:03;;;;;;;;;;;;;;;8.68;85.36;102103.00;5031908;28;19932;-83
2021/12/15 13:44:45;;;;;;;;;;;;;;;8.77;85.69;102102.41;5033286;28;19917;-83
2021/12/15 13:47:18;;;;;;;;;;;;;;;8.73;85.25;102097.44;5032671;28;19955;-84
2021/12/15 13:49:56;;;;;;;;;;;;;;;8.70;85.68;102096.69;5033368;28;19917;-84
2021/12/15 13:52:30;;;;;;;;;;;;;;;8.67;85.76;102093.38;5033107;28;19947;-83
2021/12/15 13:54:58;;;;;;;;;;;;;;;8.59;85.57;102096.53;5032785;28;19928;-84
2021/12/15 13:57:26;;;;;;;;;;;;;;;8.58;85.97;102089.59;5032604;28;19917;-84
2021/12/15 13:59:58;;;;;;;;;;;;;;;8.59;86.04;102096.53;5033227;28;19943;-84
2021/12/15 14:02:23;;;;;;;;;;;;;;;8.66;86.77;102091.72;5011024;28;19924;-84
2021/12/15 14:04:50;;;;;;;;;;;;;;;8.75;86.02;102090.25;5020233;28;19917;-84
2021/12/15 14:07:30;;;;;;;;;;;;;;;8.70;85.83;102083.50;5033140;28;19917;-84